Current | Forecast
Updated: 7:00 AM JST on January 23, 2018
Observed at Kagoshima Airport, Japan
Temperature 36°F
Windchill 30°F
Humidity 93%
Dew Point 34°F
Wind North at 7 mph
Pressure 30.01 in (Steady)
Conditions Partly Cloudy
Visibility 6.2 miles
UV 0 out of 16
Clouds (FEW) : 200 ft
Yesterday's Maximum 48°F
Yesterday's Minimum 39°F approx.
Yesterday's Heating Degree Days 21 approx.
Sunrise7:15 AM JST
Sunset5:43 PM JST
Moon Rise10:53 AM JST
Moon Set11:21 PM JST
Moon PhaseMoon Phase
Waxing Crescent
Raw METARMETAR RJFK 222200Z 36006KT 9999 FEW002 02/01 Q1016 RMK 1ST002 A3001


Monday
. High: 73° F.
Tuesday
. High: 71° F.
Wednesday
. High: 75° F.
Thursday
. High: 75° F.
Friday
. High: 69° F.
Saturday
. High: 78° F.
Sunday
. High: 77° F.
Monday
. High: 73° F.

Units: English | Metric

Find the Weather for any City, State or Zipcode, or Country:

U.S. State List | Severe Weather | Tropical Storms | Ski Conditions
United States | Canada | Central America | South America | Asia | Europe | Australia | Africa | Islands

Weather Underground

© Copyright 2018
The Weather Company, LLC